createdAt,value
2022-11-22T00:02:50.720Z,-1.81
2022-11-22T00:06:13.810Z,-1.79
2022-11-22T00:09:35.792Z,-1.76
2022-11-22T00:12:57.491Z,-1.72
2022-11-22T00:16:20.418Z,-1.76
2022-11-22T00:19:42.311Z,-1.73
2022-11-22T00:23:05.471Z,-1.70
2022-11-22T00:26:27.757Z,-1.72
2022-11-22T00:29:49.484Z,-1.69
2022-11-22T00:33:11.403Z,-1.69
2022-11-22T00:36:33.393Z,-1.67
2022-11-22T00:39:56.221Z,-1.64
2022-11-22T00:43:17.672Z,-1.62
2022-11-22T00:46:39.062Z,-1.59
2022-11-22T00:50:00.342Z,-1.55
2022-11-22T00:53:22.410Z,-1.51
2022-11-22T00:56:45.339Z,-1.45
2022-11-22T01:00:08.262Z,-1.43
2022-11-22T01:03:30.101Z,-1.40
2022-11-22T01:06:51.672Z,-1.34
2022-11-22T01:10:13.549Z,-1.26
2022-11-22T01:13:36.815Z,-1.23
2022-11-22T01:16:58.394Z,-1.17
2022-11-22T01:20:20.306Z,-1.15
2022-11-22T01:23:42.222Z,-1.12
2022-11-22T01:27:04.062Z,-1.10
2022-11-22T01:30:27.428Z,-1.08
2022-11-22T01:33:49.324Z,-1.05
2022-11-22T01:37:11.462Z,-1.03
2022-11-22T01:40:33.370Z,-0.99
2022-11-22T01:43:55.314Z,-0.94
2022-11-22T01:47:25.000Z,-0.93
2022-11-22T01:50:50.228Z,-0.89
2022-11-22T01:54:17.018Z,-0.85
2022-11-22T01:57:44.343Z,-0.81
2022-11-22T02:01:06.630Z,-0.79
2022-11-22T02:04:31.969Z,-0.78
2022-11-22T02:08:00.464Z,-0.75
2022-11-22T02:11:23.147Z,-0.74
2022-11-22T02:14:46.043Z,-0.69
2022-11-22T02:18:07.639Z,-0.68
2022-11-22T02:21:31.089Z,-0.66
2022-11-22T02:24:57.684Z,-0.64
2022-11-22T02:28:20.854Z,-0.63
2022-11-22T02:31:44.775Z,-0.62
2022-11-22T02:35:18.627Z,-0.63
2022-11-22T02:38:40.801Z,-0.64
2022-11-22T02:42:03.155Z,-0.62
2022-11-22T02:45:26.491Z,-0.63
2022-11-22T02:48:48.868Z,-0.63
2022-11-22T02:52:10.598Z,-0.65
2022-11-22T02:55:32.078Z,-0.65
2022-11-22T02:58:53.839Z,-0.67
2022-11-22T03:02:17.299Z,-0.67
2022-11-22T03:05:39.007Z,-0.69
2022-11-22T03:09:01.011Z,-0.71
2022-11-22T03:12:22.474Z,-0.73
2022-11-22T03:15:45.294Z,-0.71
2022-11-22T03:19:08.511Z,-0.73
2022-11-22T03:22:30.035Z,-0.73
2022-11-22T03:25:51.896Z,-0.75
2022-11-22T03:29:17.266Z,-0.74
2022-11-22T03:32:39.110Z,-0.76
2022-11-22T03:36:02.588Z,-0.79
2022-11-22T03:39:24.151Z,-0.79
2022-11-22T03:42:46.007Z,-0.78
2022-11-22T03:46:07.962Z,-0.77
2022-11-22T03:49:29.793Z,-0.74
2022-11-22T03:52:53.370Z,-0.71
2022-11-22T03:56:14.972Z,-0.71
2022-11-22T03:59:36.742Z,-0.69
2022-11-22T04:02:58.710Z,-0.67
2022-11-22T04:06:20.579Z,-0.64
2022-11-22T04:09:43.262Z,-0.62
2022-11-22T04:13:05.121Z,-0.61
2022-11-22T04:16:25.939Z,-0.60
2022-11-22T04:20:19.782Z,-0.57
2022-11-22T04:23:43.044Z,-0.57
2022-11-22T04:27:05.372Z,-0.54
2022-11-22T04:30:48.581Z,-0.51
2022-11-22T04:34:09.103Z,-0.52
2022-11-22T04:37:30.662Z,-0.45
2022-11-22T04:40:52.358Z,-0.44
2022-11-22T04:44:33.359Z,-0.42
2022-11-22T04:48:00.772Z,-0.38
2022-11-22T04:51:39.455Z,-0.37
2022-11-22T04:55:01.095Z,-0.35
2022-11-22T04:58:23.549Z,-0.33
2022-11-22T05:01:46.356Z,-0.34
2022-11-22T05:05:08.405Z,-0.31
2022-11-22T05:08:30.186Z,-0.31
2022-11-22T05:11:51.618Z,-0.27
2022-11-22T05:15:13.696Z,-0.26
2022-11-22T05:18:37.358Z,-0.24
2022-11-22T05:21:58.993Z,-0.20
2022-11-22T05:25:24.169Z,-0.20
2022-11-22T05:28:47.302Z,-0.19
2022-11-22T05:32:08.772Z,-0.14
2022-11-22T05:35:32.168Z,-0.12
2022-11-22T05:38:55.318Z,-0.14
2022-11-22T05:42:16.787Z,-0.11
2022-11-22T05:45:38.680Z,-0.06
2022-11-22T05:49:00.588Z,-0.08
2022-11-22T05:52:23.855Z,-0.06
2022-11-22T05:55:45.342Z,-0.04
2022-11-22T05:59:07.278Z,-0.01
2022-11-22T06:02:29.071Z,0.02
2022-11-22T06:05:53.993Z,0.04
2022-11-22T06:09:17.525Z,0.06
2022-11-22T06:12:39.706Z,0.08
2022-11-22T06:16:01.394Z,0.09
2022-11-22T06:19:23.107Z,0.10
2022-11-22T06:22:44.442Z,0.12
2022-11-22T06:26:09.627Z,0.12
2022-11-22T06:29:31.690Z,0.14
2022-11-22T06:32:53.711Z,0.12
2022-11-22T06:36:16.690Z,0.11
2022-11-22T06:39:38.457Z,0.16
2022-11-22T06:43:01.882Z,0.18
2022-11-22T06:46:25.588Z,0.19
2022-11-22T06:49:47.274Z,0.23
2022-11-22T06:53:26.303Z,0.24
2022-11-22T06:56:50.994Z,0.24
2022-11-22T07:00:15.256Z,0.27
2022-11-22T07:03:37.676Z,0.27
2022-11-22T07:06:59.474Z,0.28
2022-11-22T07:10:21.372Z,0.30
2022-11-22T07:13:43.470Z,0.30
2022-11-22T07:17:06.519Z,0.30
2022-11-22T07:20:28.134Z,0.29
2022-11-22T07:23:51.323Z,0.28
2022-11-22T07:27:13.086Z,0.29
2022-11-22T07:30:37.646Z,0.29
2022-11-22T07:34:04.370Z,0.28
2022-11-22T07:37:26.203Z,0.32
2022-11-22T07:40:48.214Z,0.33
2022-11-22T07:44:09.953Z,0.32
2022-11-22T07:47:32.808Z,0.33
2022-11-22T07:50:56.215Z,0.31
2022-11-22T07:54:17.792Z,0.34
2022-11-22T07:57:40.091Z,0.35
2022-11-22T08:01:06.534Z,0.37
2022-11-22T08:04:28.235Z,0.41
2022-11-22T08:07:52.825Z,0.43
2022-11-22T08:11:14.661Z,0.44
2022-11-22T08:14:36.466Z,0.49
2022-11-22T08:17:59.153Z,0.52
2022-11-22T08:21:21.156Z,0.52
2022-11-22T08:24:44.618Z,0.55
2022-11-22T08:28:06.718Z,0.54
2022-11-22T08:31:28.796Z,0.55
2022-11-22T08:34:50.502Z,0.57
2022-11-22T08:38:12.502Z,0.57
2022-11-22T08:41:36.159Z,0.63
2022-11-22T08:44:57.916Z,0.59
2022-11-22T08:48:22.559Z,0.61
2022-11-22T08:51:45.030Z,0.63
2022-11-22T08:55:07.802Z,0.67
2022-11-22T08:58:32.718Z,0.67
2022-11-22T09:01:54.590Z,0.82
2022-11-22T09:05:16.566Z,0.86
2022-11-22T09:08:43.699Z,0.91
2022-11-22T09:12:09.209Z,0.92
2022-11-22T09:15:32.948Z,0.95
2022-11-22T09:18:54.619Z,0.96
2022-11-22T09:22:16.087Z,0.97
2022-11-22T09:25:37.838Z,0.98
2022-11-22T09:29:00.182Z,0.99
2022-11-22T09:32:23.459Z,0.98
2022-11-22T09:35:45.070Z,0.99
2022-11-22T09:39:07.007Z,0.99
2022-11-22T09:42:54.555Z,0.98
2022-11-22T09:46:25.690Z,0.96
2022-11-22T09:50:01.178Z,0.97
2022-11-22T09:53:30.978Z,1.00
2022-11-22T09:56:56.855Z,1.04
2022-11-22T10:00:22.398Z,1.07
2022-11-22T10:03:48.935Z,1.06
2022-11-22T10:07:18.367Z,1.08
2022-11-22T10:10:43.921Z,1.10
2022-11-22T10:14:16.095Z,1.13
2022-11-22T10:17:49.220Z,1.15
2022-11-22T10:21:13.886Z,1.17
2022-11-22T10:24:36.916Z,1.19
2022-11-22T10:28:03.978Z,1.23
2022-11-22T10:31:31.352Z,1.24
2022-11-22T10:35:10.182Z,1.22
2022-11-22T10:38:57.312Z,1.27
2022-11-22T10:42:30.948Z,1.31
2022-11-22T10:46:02.498Z,1.36
2022-11-22T10:49:39.592Z,1.38
2022-11-22T10:53:09.462Z,1.41
2022-11-22T10:56:38.658Z,1.44
2022-11-22T11:00:18.014Z,1.46
2022-11-22T11:03:43.457Z,1.49
2022-11-22T11:07:12.492Z,1.50
2022-11-22T11:10:38.086Z,1.52
2022-11-22T11:14:05.698Z,1.55
2022-11-22T11:17:34.718Z,1.55
2022-11-22T11:20:56.691Z,1.55
2022-11-22T11:24:19.798Z,1.59
2022-11-22T11:27:43.806Z,1.64
2022-11-22T11:31:09.786Z,1.66
2022-11-22T11:34:34.524Z,1.68
2022-11-22T11:37:57.334Z,1.68
2022-11-22T11:41:29.136Z,1.71
2022-11-22T11:44:51.100Z,1.73
2022-11-22T11:48:30.363Z,1.75
2022-11-22T11:51:57.458Z,1.77
2022-11-22T11:55:19.462Z,1.80
2022-11-22T11:58:41.421Z,1.81
2022-11-22T12:02:06.557Z,1.84
2022-11-22T12:05:30.638Z,1.86
2022-11-22T12:08:53.771Z,1.88
2022-11-22T12:12:32.414Z,1.87
2022-11-22T12:15:59.717Z,1.88
2022-11-22T12:19:28.606Z,1.92
2022-11-22T12:23:04.811Z,1.94
2022-11-22T12:26:30.159Z,1.97
2022-11-22T12:29:53.211Z,1.98
2022-11-22T12:33:20.436Z,2.01
2022-11-22T12:36:46.447Z,2.03
2022-11-22T12:40:17.915Z,2.04
2022-11-22T12:43:46.356Z,2.05
2022-11-22T12:47:13.285Z,2.06
2022-11-22T12:50:42.618Z,2.08
2022-11-22T12:54:07.646Z,2.11
2022-11-22T12:57:38.769Z,2.14
2022-11-22T13:01:14.778Z,2.14
2022-11-22T13:04:47.365Z,2.15
2022-11-22T13:08:17.829Z,2.19
2022-11-22T13:11:46.443Z,2.20
2022-11-22T13:15:14.065Z,2.24
2022-11-22T13:18:45.299Z,2.22
2022-11-22T13:22:16.643Z,2.21
2022-11-22T13:25:48.859Z,2.24
2022-11-22T13:29:17.927Z,2.25
2022-11-22T13:32:43.126Z,2.24
2022-11-22T13:36:25.467Z,2.23
2022-11-22T13:39:49.490Z,2.24
2022-11-22T13:43:48.022Z,2.24
2022-11-22T13:47:37.992Z,2.26
2022-11-22T13:51:04.072Z,2.26
2022-11-22T13:55:00.445Z,2.26
2022-11-22T13:59:04.524Z,2.27
2022-11-22T14:02:28.711Z,2.29
2022-11-22T14:05:52.411Z,2.28
2022-11-22T14:09:37.914Z,2.28
2022-11-22T14:13:12.215Z,2.29
2022-11-22T14:17:04.920Z,2.31
2022-11-22T14:20:41.170Z,2.30
2022-11-22T14:24:11.764Z,2.30
2022-11-22T14:27:46.587Z,2.33
2022-11-22T14:31:21.980Z,2.28
2022-11-22T14:35:17.023Z,2.29
2022-11-22T14:38:40.262Z,2.31
2022-11-22T14:42:02.117Z,2.34
2022-11-22T14:45:29.550Z,2.31
2022-11-22T14:48:58.279Z,2.31
2022-11-22T14:52:24.322Z,2.30
2022-11-22T14:55:46.601Z,2.32
2022-11-22T14:59:27.071Z,2.33
2022-11-22T15:03:17.230Z,2.34
2022-11-22T15:09:14.558Z,2.37
2022-11-22T15:10:50.772Z,2.37
2022-11-22T15:14:51.951Z,2.36
2022-11-22T15:59:59.628Z,2.37
2022-11-22T16:03:26.208Z,2.37
2022-11-22T16:06:47.783Z,2.37
2022-11-22T16:10:20.862Z,2.35
2022-11-22T16:13:42.542Z,2.36
2022-11-22T16:17:22.647Z,2.36
2022-11-22T16:20:59.884Z,2.37
2022-11-22T16:24:21.687Z,2.38
2022-11-22T16:27:47.926Z,2.37
2022-11-22T16:31:19.205Z,2.37
2022-11-22T16:34:43.441Z,2.38
2022-11-22T16:38:07.131Z,2.41
2022-11-22T16:41:30.473Z,2.42
2022-11-22T16:44:57.284Z,2.42
2022-11-22T16:48:32.785Z,2.43
2022-11-22T16:51:55.415Z,2.43
2022-11-22T16:55:17.625Z,2.44
2022-11-22T16:58:39.255Z,2.43
2022-11-22T17:02:02.423Z,2.45
2022-11-22T17:05:24.179Z,2.46
2022-11-22T17:08:46.712Z,2.47
2022-11-22T17:12:14.276Z,2.46
2022-11-22T17:15:38.306Z,2.48
2022-11-22T17:19:01.378Z,2.48
2022-11-22T17:22:22.988Z,2.50
2022-11-22T17:25:44.976Z,2.51
2022-11-22T17:29:11.111Z,2.51
2022-11-22T17:32:40.376Z,2.53
2022-11-22T17:36:03.369Z,2.54
2022-11-22T17:39:25.190Z,2.56
2022-11-22T17:42:47.267Z,2.56
2022-11-22T17:46:09.188Z,2.57
2022-11-22T17:49:31.487Z,2.58
2022-11-22T17:52:54.987Z,2.59
2022-11-22T17:56:17.004Z,2.57
2022-11-22T17:59:38.401Z,2.59
2022-11-22T18:03:05.199Z,2.59
2022-11-22T18:06:29.685Z,2.60
2022-11-22T18:09:52.871Z,2.62
2022-11-22T18:13:21.187Z,2.62
2022-11-22T18:16:43.357Z,2.64
2022-11-22T18:20:05.886Z,2.63
2022-11-22T18:23:33.345Z,2.64
2022-11-22T18:26:56.500Z,2.65
2022-11-22T18:30:18.115Z,2.66
2022-11-22T18:33:39.898Z,2.66
2022-11-22T18:37:03.476Z,2.67
2022-11-22T18:40:25.863Z,2.69
2022-11-22T18:43:49.058Z,2.70
2022-11-22T18:47:11.173Z,2.69
2022-11-22T18:50:34.335Z,2.69
2022-11-22T18:53:56.211Z,2.69
2022-11-22T18:57:18.129Z,2.70
2022-11-22T19:00:41.365Z,2.70
2022-11-22T19:04:03.298Z,2.71
2022-11-22T19:07:25.195Z,2.72
2022-11-22T19:10:56.817Z,2.71
2022-11-22T19:14:18.415Z,2.76
2022-11-22T19:17:41.499Z,2.79
2022-11-22T19:21:05.583Z,2.80
2022-11-22T19:24:27.033Z,2.81
2022-11-22T19:27:49.328Z,2.82
2022-11-22T19:31:12.829Z,2.82
2022-11-22T19:34:35.882Z,2.80
2022-11-22T19:37:57.627Z,2.82
2022-11-22T19:41:21.207Z,2.83
2022-11-22T19:44:43.215Z,2.85
2022-11-22T19:48:05.126Z,2.84
2022-11-22T19:51:29.933Z,2.84
2022-11-22T19:54:51.701Z,2.85
2022-11-22T19:58:13.499Z,2.84
2022-11-22T20:01:36.563Z,2.83
2022-11-22T20:04:58.587Z,2.81
2022-11-22T20:08:21.663Z,2.80
2022-11-22T20:11:44.976Z,2.78
2022-11-22T20:15:07.655Z,2.79
2022-11-22T20:18:29.701Z,2.78
2022-11-22T20:21:51.298Z,2.81
2022-11-22T20:25:14.354Z,2.83
2022-11-22T20:28:35.891Z,2.82
2022-11-22T20:31:59.206Z,2.83
2022-11-22T20:35:21.045Z,2.84
2022-11-22T20:38:44.619Z,2.84
2022-11-22T20:42:33.082Z,2.86
2022-11-22T20:45:49.275Z,2.87
2022-11-22T20:49:11.493Z,2.91
2022-11-22T20:52:33.343Z,2.91
2022-11-22T20:55:56.112Z,2.92
2022-11-22T20:59:19.186Z,2.92
2022-11-22T21:02:40.927Z,2.93
2022-11-22T21:06:03.932Z,2.93
2022-11-22T21:09:25.575Z,2.92
2022-11-22T21:12:47.520Z,2.92
2022-11-22T21:16:22.628Z,2.92
2022-11-22T21:19:45.400Z,2.91
2022-11-22T21:23:06.898Z,2.92
2022-11-22T21:26:29.209Z,2.89
2022-11-22T21:29:51.250Z,2.89
2022-11-22T21:33:14.452Z,2.88
2022-11-22T21:36:36.385Z,2.90
2022-11-22T21:39:58.498Z,2.92
2022-11-22T21:43:20.743Z,2.94
2022-11-22T21:46:43.775Z,2.96
2022-11-22T21:50:11.596Z,2.98
2022-11-22T21:53:33.979Z,2.98
2022-11-22T21:57:01.257Z,3.01
2022-11-22T22:00:24.739Z,3.01
2022-11-22T22:03:46.348Z,3.02
2022-11-22T22:07:29.599Z,3.03
2022-11-22T22:10:51.642Z,3.03
2022-11-22T22:14:13.186Z,3.04
2022-11-22T22:17:34.743Z,3.03
2022-11-22T22:21:00.915Z,3.01
2022-11-22T22:24:24.131Z,3.02
2022-11-22T22:27:45.805Z,3.04
2022-11-22T22:31:09.395Z,3.03
2022-11-22T22:34:31.259Z,3.02
2022-11-22T22:37:52.938Z,3.02
2022-11-22T22:41:16.698Z,3.00
2022-11-22T22:44:38.634Z,2.98
2022-11-22T22:48:00.511Z,2.96
2022-11-22T22:51:30.685Z,2.96
2022-11-22T22:54:54.543Z,2.97
2022-11-22T22:58:21.903Z,2.98
2022-11-22T23:01:43.810Z,2.99
2022-11-22T23:05:06.725Z,3.01
2022-11-22T23:08:28.736Z,3.01
2022-11-22T23:12:07.926Z,3.01
2022-11-22T23:15:56.455Z,3.02
2022-11-22T23:19:13.065Z,3.02
2022-11-22T23:22:34.947Z,3.02
2022-11-22T23:25:57.571Z,3.03
2022-11-22T23:29:19.189Z,3.01
2022-11-22T23:32:41.967Z,3.02
2022-11-22T23:36:05.443Z,3.01
2022-11-22T23:39:27.310Z,3.01
2022-11-22T23:42:49.286Z,3.03
2022-11-22T23:46:16.027Z,3.02
2022-11-22T23:49:39.386Z,3.02
2022-11-22T23:53:01.037Z,3.01
2022-11-22T23:56:23.402Z,3.01
2022-11-22T23:59:45.358Z,3.00
